sensor_id;sensor_type;location;lat;lon;timestamp;P1;durP1;ratioP1;P2;durP2;ratioP2
51718;SDS011;37795;53.236;5.704;2022-10-29T00:01:48;26.43;;;5.50;;
51718;SDS011;37795;53.236;5.704;2022-10-29T00:04:14;14.20;;;5.25;;
51718;SDS011;37795;53.236;5.704;2022-10-29T00:06:39;11.23;;;5.47;;
51718;SDS011;37795;53.236;5.704;2022-10-29T00:09:05;14.82;;;6.15;;
51718;SDS011;37795;53.236;5.704;2022-10-29T00:11:32;19.20;;;6.23;;
51718;SDS011;37795;53.236;5.704;2022-10-29T00:13:59;17.48;;;6.10;;
51718;SDS011;37795;53.236;5.704;2022-10-29T00:16:26;13.45;;;6.40;;
51718;SDS011;37795;53.236;5.704;2022-10-29T00:18:54;12.10;;;6.40;;
51718;SDS011;37795;53.236;5.704;2022-10-29T00:21:22;9.68;;;6.43;;
51718;SDS011;37795;53.236;5.704;2022-10-29T00:23:49;7.50;;;5.53;;
51718;SDS011;37795;53.236;5.704;2022-10-29T00:26:16;9.90;;;5.40;;
51718;SDS011;37795;53.236;5.704;2022-10-29T00:28:43;7.93;;;4.20;;
51718;SDS011;37795;53.236;5.704;2022-10-29T00:31:10;8.13;;;3.67;;
51718;SDS011;37795;53.236;5.704;2022-10-29T00:33:41;8.10;;;3.78;;
51718;SDS011;37795;53.236;5.704;2022-10-29T00:36:09;8.20;;;4.20;;
51718;SDS011;37795;53.236;5.704;2022-10-29T00:38:37;10.05;;;3.47;;
51718;SDS011;37795;53.236;5.704;2022-10-29T00:41:03;19.33;;;4.55;;
51718;SDS011;37795;53.236;5.704;2022-10-29T00:43:34;11.38;;;4.20;;
51718;SDS011;37795;53.236;5.704;2022-10-29T00:48:35;12.32;;;4.03;;
51718;SDS011;37795;53.236;5.704;2022-10-29T00:51:05;14.05;;;3.92;;
51718;SDS011;37795;53.236;5.704;2022-10-29T00:53:33;9.60;;;3.80;;
51718;SDS011;37795;53.236;5.704;2022-10-29T00:56:03;6.72;;;3.35;;
51718;SDS011;37795;53.236;5.704;2022-10-29T00:58:30;29.60;;;3.88;;
51718;SDS011;37795;53.236;5.704;2022-10-29T01:00:56;4.95;;;3.28;;
51718;SDS011;37795;53.236;5.704;2022-10-29T01:03:23;8.13;;;3.10;;
51718;SDS011;37795;53.236;5.704;2022-10-29T01:05:49;10.57;;;3.63;;
51718;SDS011;37795;53.236;5.704;2022-10-29T01:08:17;7.55;;;4.05;;
51718;SDS011;37795;53.236;5.704;2022-10-29T01:22:03;11.90;;;2.95;;
51718;SDS011;37795;53.236;5.704;2022-10-29T01:39:02;13.90;;;4.05;;
51718;SDS011;37795;53.236;5.704;2022-10-29T01:41:53;10.02;;;3.50;;
51718;SDS011;37795;53.236;5.704;2022-10-29T01:47:15;6.38;;;3.65;;
51718;SDS011;37795;53.236;5.704;2022-10-29T01:49:44;13.70;;;4.33;;
51718;SDS011;37795;53.236;5.704;2022-10-29T01:52:15;5.72;;;3.67;;
51718;SDS011;37795;53.236;5.704;2022-10-29T01:54:43;8.55;;;3.72;;
51718;SDS011;37795;53.236;5.704;2022-10-29T01:57:32;26.55;;;4.50;;
51718;SDS011;37795;53.236;5.704;2022-10-29T02:00:10;11.25;;;3.90;;
51718;SDS011;37795;53.236;5.704;2022-10-29T02:05:36;26.73;;;5.35;;
51718;SDS011;37795;53.236;5.704;2022-10-29T02:08:47;37.95;;;5.88;;
51718;SDS011;37795;53.236;5.704;2022-10-29T02:11:22;54.03;;;6.55;;
51718;SDS011;37795;53.236;5.704;2022-10-29T02:16:26;39.47;;;5.85;;
51718;SDS011;37795;53.236;5.704;2022-10-29T02:18:53;45.53;;;5.80;;
51718;SDS011;37795;53.236;5.704;2022-10-29T02:21:19;23.42;;;4.78;;
51718;SDS011;37795;53.236;5.704;2022-10-29T02:23:45;35.20;;;5.00;;
51718;SDS011;37795;53.236;5.704;2022-10-29T02:26:11;10.20;;;3.97;;
51718;SDS011;37795;53.236;5.704;2022-10-29T02:28:37;18.93;;;4.53;;
51718;SDS011;37795;53.236;5.704;2022-10-29T02:31:03;23.58;;;4.85;;
51718;SDS011;37795;53.236;5.704;2022-10-29T02:33:29;11.40;;;3.92;;
51718;SDS011;37795;53.236;5.704;2022-10-29T02:35:55;27.20;;;5.27;;
51718;SDS011;37795;53.236;5.704;2022-10-29T02:38:21;45.78;;;5.60;;
51718;SDS011;37795;53.236;5.704;2022-10-29T02:40:46;27.65;;;4.93;;
51718;SDS011;37795;53.236;5.704;2022-10-29T02:43:12;31.10;;;4.90;;
51718;SDS011;37795;53.236;5.704;2022-10-29T02:45:38;33.97;;;5.63;;
51718;SDS011;37795;53.236;5.704;2022-10-29T02:48:04;31.27;;;5.40;;
51718;SDS011;37795;53.236;5.704;2022-10-29T02:50:29;16.58;;;5.53;;
51718;SDS011;37795;53.236;5.704;2022-10-29T02:52:55;15.40;;;4.57;;
51718;SDS011;37795;53.236;5.704;2022-10-29T02:55:21;15.63;;;4.68;;
51718;SDS011;37795;53.236;5.704;2022-10-29T02:57:47;34.40;;;5.65;;
51718;SDS011;37795;53.236;5.704;2022-10-29T03:00:12;36.03;;;5.93;;
51718;SDS011;37795;53.236;5.704;2022-10-29T03:02:39;27.63;;;5.50;;
51718;SDS011;37795;53.236;5.704;2022-10-29T03:05:05;9.00;;;4.40;;
51718;SDS011;37795;53.236;5.704;2022-10-29T03:07:35;36.15;;;5.60;;
51718;SDS011;37795;53.236;5.704;2022-10-29T03:10:04;13.02;;;4.95;;
51718;SDS011;37795;53.236;5.704;2022-10-29T03:12:31;23.50;;;5.10;;
51718;SDS011;37795;53.236;5.704;2022-10-29T03:14:57;10.68;;;4.50;;
51718;SDS011;37795;53.236;5.704;2022-10-29T03:17:23;11.38;;;4.43;;
51718;SDS011;37795;53.236;5.704;2022-10-29T03:19:49;14.03;;;5.07;;
51718;SDS011;37795;53.236;5.704;2022-10-29T03:22:14;9.73;;;4.25;;
51718;SDS011;37795;53.236;5.704;2022-10-29T03:24:40;11.20;;;5.15;;
51718;SDS011;37795;53.236;5.704;2022-10-29T03:27:06;15.90;;;5.35;;
51718;SDS011;37795;53.236;5.704;2022-10-29T03:29:31;56.53;;;7.37;;
51718;SDS011;37795;53.236;5.704;2022-10-29T03:31:57;25.60;;;6.00;;
51718;SDS011;37795;53.236;5.704;2022-10-29T03:34:23;38.25;;;6.95;;
51718;SDS011;37795;53.236;5.704;2022-10-29T03:36:48;24.45;;;5.80;;
51718;SDS011;37795;53.236;5.704;2022-10-29T03:39:14;17.77;;;5.30;;
51718;SDS011;37795;53.236;5.704;2022-10-29T03:41:40;25.53;;;5.80;;
51718;SDS011;37795;53.236;5.704;2022-10-29T03:44:06;26.70;;;6.10;;
51718;SDS011;37795;53.236;5.704;2022-10-29T03:46:31;25.60;;;5.97;;
51718;SDS011;37795;53.236;5.704;2022-10-29T03:48:58;16.17;;;5.70;;
51718;SDS011;37795;53.236;5.704;2022-10-29T03:51:23;17.67;;;6.10;;
51718;SDS011;37795;53.236;5.704;2022-10-29T03:53:49;10.43;;;5.47;;
51718;SDS011;37795;53.236;5.704;2022-10-29T03:56:15;9.73;;;5.00;;
51718;SDS011;37795;53.236;5.704;2022-10-29T03:58:41;16.60;;;6.20;;
51718;SDS011;37795;53.236;5.704;2022-10-29T04:01:07;6.35;;;5.20;;
51718;SDS011;37795;53.236;5.704;2022-10-29T04:03:34;17.73;;;5.38;;
51718;SDS011;37795;53.236;5.704;2022-10-29T04:06:06;13.13;;;5.90;;
51718;SDS011;37795;53.236;5.704;2022-10-29T04:08:34;18.50;;;5.97;;
51718;SDS011;37795;53.236;5.704;2022-10-29T04:10:59;14.98;;;5.90;;
51718;SDS011;37795;53.236;5.704;2022-10-29T04:13:25;27.27;;;6.60;;
51718;SDS011;37795;53.236;5.704;2022-10-29T04:15:54;20.20;;;6.30;;
51718;SDS011;37795;53.236;5.704;2022-10-29T04:18:20;29.88;;;6.53;;
51718;SDS011;37795;53.236;5.704;2022-10-29T04:20:46;16.77;;;5.80;;
51718;SDS011;37795;53.236;5.704;2022-10-29T04:23:12;26.98;;;6.60;;
51718;SDS011;37795;53.236;5.704;2022-10-29T04:25:37;11.87;;;6.23;;
51718;SDS011;37795;53.236;5.704;2022-10-29T04:28:03;18.30;;;6.33;;
51718;SDS011;37795;53.236;5.704;2022-10-29T04:30:29;15.52;;;6.32;;
51718;SDS011;37795;53.236;5.704;2022-10-29T04:32:58;29.90;;;6.38;;
51718;SDS011;37795;53.236;5.704;2022-10-29T04:35:25;29.95;;;6.30;;
51718;SDS011;37795;53.236;5.704;2022-10-29T04:37:51;16.88;;;5.85;;
51718;SDS011;37795;53.236;5.704;2022-10-29T04:40:20;16.15;;;4.97;;
51718;SDS011;37795;53.236;5.704;2022-10-29T04:42:47;15.35;;;5.60;;
51718;SDS011;37795;53.236;5.704;2022-10-29T04:45:12;17.70;;;6.05;;
51718;SDS011;37795;53.236;5.704;2022-10-29T04:47:38;15.40;;;5.75;;
51718;SDS011;37795;53.236;5.704;2022-10-29T04:50:04;21.52;;;5.82;;
51718;SDS011;37795;53.236;5.704;2022-10-29T04:52:30;24.43;;;6.70;;
51718;SDS011;37795;53.236;5.704;2022-10-29T04:54:55;18.52;;;6.22;;
51718;SDS011;37795;53.236;5.704;2022-10-29T04:57:21;15.57;;;6.20;;
51718;SDS011;37795;53.236;5.704;2022-10-29T04:59:47;25.50;;;7.20;;
51718;SDS011;37795;53.236;5.704;2022-10-29T05:02:12;32.20;;;6.83;;
51718;SDS011;37795;53.236;5.704;2022-10-29T05:04:38;35.45;;;8.82;;
51718;SDS011;37795;53.236;5.704;2022-10-29T05:07:04;30.10;;;7.70;;
51718;SDS011;37795;53.236;5.704;2022-10-29T05:09:29;13.82;;;5.97;;
51718;SDS011;37795;53.236;5.704;2022-10-29T05:11:55;28.83;;;7.67;;
51718;SDS011;37795;53.236;5.704;2022-10-29T05:14:21;19.30;;;7.17;;
51718;SDS011;37795;53.236;5.704;2022-10-29T05:16:46;20.77;;;7.78;;
51718;SDS011;37795;53.236;5.704;2022-10-29T05:19:12;29.65;;;7.57;;
51718;SDS011;37795;53.236;5.704;2022-10-29T05:21:37;20.58;;;6.97;;
51718;SDS011;37795;53.236;5.704;2022-10-29T05:24:03;20.73;;;7.20;;
51718;SDS011;37795;53.236;5.704;2022-10-29T05:26:30;12.27;;;7.30;;
51718;SDS011;37795;53.236;5.704;2022-10-29T05:28:56;13.32;;;6.75;;
51718;SDS011;37795;53.236;5.704;2022-10-29T05:31:22;14.47;;;7.80;;
51718;SDS011;37795;53.236;5.704;2022-10-29T05:33:47;15.50;;;8.20;;
51718;SDS011;37795;53.236;5.704;2022-10-29T05:36:13;18.27;;;8.10;;
51718;SDS011;37795;53.236;5.704;2022-10-29T05:38:39;35.70;;;9.20;;
51718;SDS011;37795;53.236;5.704;2022-10-29T05:41:04;24.80;;;9.17;;
51718;SDS011;37795;53.236;5.704;2022-10-29T05:43:30;65.30;;;10.57;;
51718;SDS011;37795;53.236;5.704;2022-10-29T05:45:56;32.33;;;9.15;;
51718;SDS011;37795;53.236;5.704;2022-10-29T05:48:21;34.80;;;10.27;;
51718;SDS011;37795;53.236;5.704;2022-10-29T05:50:47;28.67;;;9.57;;
51718;SDS011;37795;53.236;5.704;2022-10-29T05:53:13;26.97;;;8.57;;
51718;SDS011;37795;53.236;5.704;2022-10-29T05:55:39;24.83;;;9.60;;
51718;SDS011;37795;53.236;5.704;2022-10-29T05:58:07;48.08;;;11.80;;
51718;SDS011;37795;53.236;5.704;2022-10-29T06:00:35;38.15;;;11.27;;
51718;SDS011;37795;53.236;5.704;2022-10-29T06:03:03;48.75;;;10.75;;
51718;SDS011;37795;53.236;5.704;2022-10-29T06:05:32;24.70;;;9.82;;
51718;SDS011;37795;53.236;5.704;2022-10-29T06:07:59;35.97;;;11.00;;
51718;SDS011;37795;53.236;5.704;2022-10-29T06:10:25;25.73;;;11.13;;
51718;SDS011;37795;53.236;5.704;2022-10-29T06:12:53;36.90;;;12.48;;
51718;SDS011;37795;53.236;5.704;2022-10-29T06:15:18;35.83;;;11.30;;
51718;SDS011;37795;53.236;5.704;2022-10-29T06:17:44;39.58;;;13.25;;
51718;SDS011;37795;53.236;5.704;2022-10-29T06:20:11;33.05;;;11.63;;
51718;SDS011;37795;53.236;5.704;2022-10-29T06:22:41;24.67;;;11.43;;
51718;SDS011;37795;53.236;5.704;2022-10-29T06:25:07;49.63;;;13.33;;
51718;SDS011;37795;53.236;5.704;2022-10-29T06:27:34;31.05;;;11.85;;
51718;SDS011;37795;53.236;5.704;2022-10-29T06:30:00;36.75;;;11.95;;
51718;SDS011;37795;53.236;5.704;2022-10-29T06:32:26;25.05;;;11.57;;
51718;SDS011;37795;53.236;5.704;2022-10-29T06:34:51;33.63;;;11.40;;
51718;SDS011;37795;53.236;5.704;2022-10-29T06:37:17;36.40;;;10.97;;
51718;SDS011;37795;53.236;5.704;2022-10-29T06:39:43;28.17;;;11.93;;
51718;SDS011;37795;53.236;5.704;2022-10-29T06:42:08;20.67;;;10.32;;
51718;SDS011;37795;53.236;5.704;2022-10-29T06:44:34;23.98;;;11.00;;
51718;SDS011;37795;53.236;5.704;2022-10-29T06:47:00;28.00;;;10.97;;
51718;SDS011;37795;53.236;5.704;2022-10-29T06:49:25;24.47;;;11.20;;
51718;SDS011;37795;53.236;5.704;2022-10-29T06:51:51;42.60;;;13.67;;
51718;SDS011;37795;53.236;5.704;2022-10-29T06:59:39;44.78;;;16.48;;
51718;SDS011;37795;53.236;5.704;2022-10-29T07:02:04;28.25;;;13.60;;
51718;SDS011;37795;53.236;5.704;2022-10-29T07:04:30;33.50;;;14.30;;
51718;SDS011;37795;53.236;5.704;2022-10-29T07:06:56;34.22;;;15.43;;
51718;SDS011;37795;53.236;5.704;2022-10-29T07:09:21;47.20;;;14.07;;
51718;SDS011;37795;53.236;5.704;2022-10-29T07:11:47;26.70;;;14.00;;
51718;SDS011;37795;53.236;5.704;2022-10-29T07:14:13;30.50;;;14.67;;
51718;SDS011;37795;53.236;5.704;2022-10-29T07:16:38;28.67;;;14.10;;
51718;SDS011;37795;53.236;5.704;2022-10-29T07:19:04;21.65;;;13.32;;
51718;SDS011;37795;53.236;5.704;2022-10-29T07:21:30;30.80;;;14.18;;
51718;SDS011;37795;53.236;5.704;2022-10-29T07:23:56;46.40;;;15.20;;
51718;SDS011;37795;53.236;5.704;2022-10-29T07:26:21;60.33;;;17.15;;
51718;SDS011;37795;53.236;5.704;2022-10-29T07:28:47;56.38;;;15.70;;
51718;SDS011;37795;53.236;5.704;2022-10-29T07:31:13;39.13;;;15.47;;
51718;SDS011;37795;53.236;5.704;2022-10-29T07:33:38;25.20;;;13.13;;
51718;SDS011;37795;53.236;5.704;2022-10-29T07:36:04;36.90;;;15.23;;
51718;SDS011;37795;53.236;5.704;2022-10-29T07:38:30;25.08;;;12.48;;
51718;SDS011;37795;53.236;5.704;2022-10-29T07:40:55;41.70;;;14.23;;
51718;SDS011;37795;53.236;5.704;2022-10-29T07:43:21;41.63;;;13.80;;
51718;SDS011;37795;53.236;5.704;2022-10-29T07:45:48;28.33;;;12.88;;
51718;SDS011;37795;53.236;5.704;2022-10-29T07:48:15;39.28;;;13.85;;
51718;SDS011;37795;53.236;5.704;2022-10-29T07:50:41;29.30;;;13.60;;
51718;SDS011;37795;53.236;5.704;2022-10-29T07:53:07;26.27;;;11.90;;
51718;SDS011;37795;53.236;5.704;2022-10-29T07:55:33;45.08;;;12.95;;
51718;SDS011;37795;53.236;5.704;2022-10-29T07:58:00;25.17;;;12.80;;
51718;SDS011;37795;53.236;5.704;2022-10-29T08:00:28;20.48;;;12.98;;
51718;SDS011;37795;53.236;5.704;2022-10-29T08:02:55;37.03;;;13.02;;
51718;SDS011;37795;53.236;5.704;2022-10-29T08:05:22;45.07;;;14.50;;
51718;SDS011;37795;53.236;5.704;2022-10-29T08:07:48;29.63;;;13.77;;
51718;SDS011;37795;53.236;5.704;2022-10-29T08:10:16;38.93;;;14.37;;
51718;SDS011;37795;53.236;5.704;2022-10-29T08:12:51;30.42;;;15.00;;
51718;SDS011;37795;53.236;5.704;2022-10-29T08:15:18;21.45;;;14.70;;
51718;SDS011;37795;53.236;5.704;2022-10-29T08:17:45;27.60;;;14.73;;
51718;SDS011;37795;53.236;5.704;2022-10-29T08:20:11;40.28;;;16.38;;
51718;SDS011;37795;53.236;5.704;2022-10-29T08:22:37;37.60;;;17.33;;
51718;SDS011;37795;53.236;5.704;2022-10-29T08:25:03;36.40;;;16.50;;
51718;SDS011;37795;53.236;5.704;2022-10-29T08:27:29;36.00;;;18.50;;
51718;SDS011;37795;53.236;5.704;2022-10-29T08:29:55;31.77;;;20.93;;
51718;SDS011;37795;53.236;5.704;2022-10-29T08:32:20;36.20;;;18.77;;
51718;SDS011;37795;53.236;5.704;2022-10-29T08:34:46;33.47;;;17.13;;
51718;SDS011;37795;53.236;5.704;2022-10-29T08:37:12;38.83;;;21.73;;
51718;SDS011;37795;53.236;5.704;2022-10-29T08:39:37;37.58;;;20.80;;
51718;SDS011;37795;53.236;5.704;2022-10-29T08:44:50;38.25;;;22.85;;
51718;SDS011;37795;53.236;5.704;2022-10-29T08:47:19;38.30;;;22.77;;
51718;SDS011;37795;53.236;5.704;2022-10-29T08:52:30;37.47;;;23.95;;
51718;SDS011;37795;53.236;5.704;2022-10-29T08:55:20;43.27;;;25.57;;
51718;SDS011;37795;53.236;5.704;2022-10-29T08:57:58;41.73;;;27.13;;
51718;SDS011;37795;53.236;5.704;2022-10-29T09:00:35;41.67;;;26.57;;
51718;SDS011;37795;53.236;5.704;2022-10-29T09:03:08;50.47;;;28.85;;
51718;SDS011;37795;53.236;5.704;2022-10-29T09:05:49;46.85;;;30.33;;
51718;SDS011;37795;53.236;5.704;2022-10-29T09:11:27;41.30;;;29.08;;
51718;SDS011;37795;53.236;5.704;2022-10-29T09:17:10;47.75;;;29.42;;
51718;SDS011;37795;53.236;5.704;2022-10-29T09:19:44;49.00;;;31.25;;
51718;SDS011;37795;53.236;5.704;2022-10-29T09:22:21;40.58;;;31.05;;
51718;SDS011;37795;53.236;5.704;2022-10-29T09:31:01;44.85;;;30.05;;
51718;SDS011;37795;53.236;5.704;2022-10-29T09:33:49;44.15;;;28.83;;
51718;SDS011;37795;53.236;5.704;2022-10-29T09:36:19;40.72;;;28.52;;
51718;SDS011;37795;53.236;5.704;2022-10-29T09:41:16;44.17;;;28.17;;
51718;SDS011;37795;53.236;5.704;2022-10-29T09:54:28;38.00;;;25.85;;
51718;SDS011;37795;53.236;5.704;2022-10-29T09:56:55;38.30;;;24.73;;
51718;SDS011;37795;53.236;5.704;2022-10-29T10:02:19;35.40;;;24.65;;
51718;SDS011;37795;53.236;5.704;2022-10-29T10:04:57;30.73;;;24.52;;
51718;SDS011;37795;53.236;5.704;2022-10-29T10:07:29;33.37;;;23.43;;
51718;SDS011;37795;53.236;5.704;2022-10-29T10:09:58;33.40;;;21.65;;
51718;SDS011;37795;53.236;5.704;2022-10-29T10:12:26;32.92;;;22.10;;
51718;SDS011;37795;53.236;5.704;2022-10-29T10:17:55;25.73;;;19.70;;
51718;SDS011;37795;53.236;5.704;2022-10-29T10:23:49;27.77;;;20.15;;
51718;SDS011;37795;53.236;5.704;2022-10-29T10:26:30;23.05;;;17.70;;
51718;SDS011;37795;53.236;5.704;2022-10-29T10:29:22;30.35;;;18.08;;
51718;SDS011;37795;53.236;5.704;2022-10-29T10:32:13;21.15;;;15.13;;
51718;SDS011;37795;53.236;5.704;2022-10-29T10:34:38;27.90;;;17.73;;
51718;SDS011;37795;53.236;5.704;2022-10-29T10:37:15;25.97;;;16.77;;
51718;SDS011;37795;53.236;5.704;2022-10-29T10:39:48;23.95;;;15.75;;
51718;SDS011;37795;53.236;5.704;2022-10-29T10:42:26;18.10;;;15.38;;
51718;SDS011;37795;53.236;5.704;2022-10-29T10:44:55;26.23;;;16.30;;
51718;SDS011;37795;53.236;5.704;2022-10-29T10:47:25;21.73;;;15.90;;
51718;SDS011;37795;53.236;5.704;2022-10-29T10:50:08;19.95;;;15.95;;
51718;SDS011;37795;53.236;5.704;2022-10-29T11:05:19;23.58;;;17.60;;
51718;SDS011;37795;53.236;5.704;2022-10-29T11:08:08;22.05;;;17.55;;
51718;SDS011;37795;53.236;5.704;2022-10-29T11:10:57;24.67;;;17.33;;
51718;SDS011;37795;53.236;5.704;2022-10-29T11:13:29;24.40;;;17.05;;
51718;SDS011;37795;53.236;5.704;2022-10-29T11:15:57;20.73;;;15.77;;
51718;SDS011;37795;53.236;5.704;2022-10-29T11:21:05;18.60;;;15.63;;
51718;SDS011;37795;53.236;5.704;2022-10-29T11:24:14;25.23;;;17.02;;
51718;SDS011;37795;53.236;5.704;2022-10-29T11:32:10;24.30;;;18.02;;
51718;SDS011;37795;53.236;5.704;2022-10-29T11:35:01;23.38;;;17.75;;
51718;SDS011;37795;53.236;5.704;2022-10-29T11:40:03;23.17;;;17.15;;
51718;SDS011;37795;53.236;5.704;2022-10-29T11:42:33;26.95;;;18.27;;
51718;SDS011;37795;53.236;5.704;2022-10-29T11:45:00;27.67;;;19.55;;
51718;SDS011;37795;53.236;5.704;2022-10-29T12:12:11;31.20;;;19.52;;
51718;SDS011;37795;53.236;5.704;2022-10-29T12:14:50;26.42;;;18.77;;
51718;SDS011;37795;53.236;5.704;2022-10-29T12:17:30;23.73;;;17.60;;
51718;SDS011;37795;53.236;5.704;2022-10-29T12:20:03;22.55;;;18.15;;
51718;SDS011;37795;53.236;5.704;2022-10-29T12:22:49;35.45;;;17.85;;
51718;SDS011;37795;53.236;5.704;2022-10-29T12:31:02;25.38;;;16.92;;
51718;SDS011;37795;53.236;5.704;2022-10-29T12:36:53;23.50;;;16.95;;
51718;SDS011;37795;53.236;5.704;2022-10-29T12:39:04;25.70;;;16.10;;
51718;SDS011;37795;53.236;5.704;2022-10-29T12:41:43;25.17;;;16.73;;
51718;SDS011;37795;53.236;5.704;2022-10-29T12:44:24;25.45;;;18.48;;
51718;SDS011;37795;53.236;5.704;2022-10-29T12:47:10;21.73;;;15.87;;
51718;SDS011;37795;53.236;5.704;2022-10-29T12:52:52;21.17;;;16.48;;
51718;SDS011;37795;53.236;5.704;2022-10-29T12:55:13;26.40;;;16.88;;
51718;SDS011;37795;53.236;5.704;2022-10-29T12:57:40;25.03;;;18.53;;
51718;SDS011;37795;53.236;5.704;2022-10-29T13:02:48;21.08;;;16.38;;
51718;SDS011;37795;53.236;5.704;2022-10-29T13:15:33;27.02;;;17.05;;
51718;SDS011;37795;53.236;5.704;2022-10-29T13:18:06;21.07;;;15.87;;
51718;SDS011;37795;53.236;5.704;2022-10-29T13:20:42;20.13;;;15.05;;
51718;SDS011;37795;53.236;5.704;2022-10-29T13:23:54;24.70;;;14.43;;
51718;SDS011;37795;53.236;5.704;2022-10-29T13:26:02;19.70;;;14.93;;
51718;SDS011;37795;53.236;5.704;2022-10-29T13:36:02;19.13;;;13.63;;
51718;SDS011;37795;53.236;5.704;2022-10-29T13:41:23;20.75;;;13.88;;
51718;SDS011;37795;53.236;5.704;2022-10-29T13:54:41;22.83;;;13.23;;
51718;SDS011;37795;53.236;5.704;2022-10-29T13:57:28;21.45;;;12.80;;
51718;SDS011;37795;53.236;5.704;2022-10-29T14:00:18;20.15;;;13.20;;
51718;SDS011;37795;53.236;5.704;2022-10-29T14:03:10;21.35;;;13.07;;
51718;SDS011;37795;53.236;5.704;2022-10-29T14:13:12;17.60;;;13.43;;
51718;SDS011;37795;53.236;5.704;2022-10-29T14:16:14;24.70;;;14.68;;
51718;SDS011;37795;53.236;5.704;2022-10-29T14:18:48;20.17;;;15.13;;
51718;SDS011;37795;53.236;5.704;2022-10-29T14:23:40;21.67;;;14.67;;
51718;SDS011;37795;53.236;5.704;2022-10-29T14:26:23;21.98;;;14.07;;
51718;SDS011;37795;53.236;5.704;2022-10-29T14:28:49;20.65;;;14.95;;
51718;SDS011;37795;53.236;5.704;2022-10-29T14:31:22;19.13;;;15.15;;
51718;SDS011;37795;53.236;5.704;2022-10-29T14:33:56;22.88;;;15.02;;
51718;SDS011;37795;53.236;5.704;2022-10-29T14:36:34;23.17;;;15.50;;
51718;SDS011;37795;53.236;5.704;2022-10-29T14:39:12;17.40;;;14.13;;
51718;SDS011;37795;53.236;5.704;2022-10-29T14:41:58;30.33;;;15.15;;
51718;SDS011;37795;53.236;5.704;2022-10-29T14:44:24;21.43;;;14.87;;
51718;SDS011;37795;53.236;5.704;2022-10-29T14:49:28;18.38;;;13.68;;
51718;SDS011;37795;53.236;5.704;2022-10-29T14:51:56;20.80;;;13.88;;
51718;SDS011;37795;53.236;5.704;2022-10-29T14:54:28;21.00;;;13.80;;
51718;SDS011;37795;53.236;5.704;2022-10-29T14:56:58;20.90;;;15.40;;
51718;SDS011;37795;53.236;5.704;2022-10-29T14:59:27;21.75;;;15.15;;
51718;SDS011;37795;53.236;5.704;2022-10-29T15:01:57;22.15;;;13.90;;
51718;SDS011;37795;53.236;5.704;2022-10-29T15:04:26;21.83;;;13.95;;
51718;SDS011;37795;53.236;5.704;2022-10-29T15:10:01;18.83;;;13.27;;
51718;SDS011;37795;53.236;5.704;2022-10-29T15:12:40;18.17;;;13.10;;
51718;SDS011;37795;53.236;5.704;2022-10-29T15:15:10;21.02;;;14.60;;
51718;SDS011;37795;53.236;5.704;2022-10-29T15:17:46;20.83;;;16.10;;
51718;SDS011;37795;53.236;5.704;2022-10-29T15:20:26;20.75;;;16.65;;
51718;SDS011;37795;53.236;5.704;2022-10-29T15:22:56;23.65;;;17.27;;
51718;SDS011;37795;53.236;5.704;2022-10-29T15:25:26;21.07;;;14.67;;
51718;SDS011;37795;53.236;5.704;2022-10-29T15:27:56;16.05;;;12.98;;
51718;SDS011;37795;53.236;5.704;2022-10-29T15:30:27;21.42;;;13.88;;
51718;SDS011;37795;53.236;5.704;2022-10-29T15:33:01;22.80;;;15.27;;
51718;SDS011;37795;53.236;5.704;2022-10-29T15:35:32;19.23;;;14.20;;
51718;SDS011;37795;53.236;5.704;2022-10-29T15:38:00;25.60;;;15.57;;
51718;SDS011;37795;53.236;5.704;2022-10-29T15:40:25;20.23;;;14.35;;
51718;SDS011;37795;53.236;5.704;2022-10-29T15:42:51;18.73;;;15.30;;
51718;SDS011;37795;53.236;5.704;2022-10-29T15:45:20;20.92;;;15.10;;
51718;SDS011;37795;53.236;5.704;2022-10-29T15:47:54;25.08;;;15.27;;
51718;SDS011;37795;53.236;5.704;2022-10-29T15:50:28;28.33;;;15.43;;
51718;SDS011;37795;53.236;5.704;2022-10-29T15:53:01;20.83;;;15.00;;
51718;SDS011;37795;53.236;5.704;2022-10-29T15:55:33;25.92;;;14.10;;
51718;SDS011;37795;53.236;5.704;2022-10-29T15:58:03;22.97;;;14.70;;
51718;SDS011;37795;53.236;5.704;2022-10-29T16:00:32;19.73;;;13.18;;
51718;SDS011;37795;53.236;5.704;2022-10-29T16:03:12;24.37;;;15.00;;
51718;SDS011;37795;53.236;5.704;2022-10-29T16:05:58;17.40;;;14.52;;
51718;SDS011;37795;53.236;5.704;2022-10-29T16:10:54;24.48;;;15.45;;
51718;SDS011;37795;53.236;5.704;2022-10-29T16:13:21;22.70;;;14.98;;
51718;SDS011;37795;53.236;5.704;2022-10-29T16:15:48;22.27;;;15.50;;
51718;SDS011;37795;53.236;5.704;2022-10-29T16:18:14;21.10;;;14.48;;
51718;SDS011;37795;53.236;5.704;2022-10-29T16:20:40;26.83;;;14.37;;
51718;SDS011;37795;53.236;5.704;2022-10-29T16:23:12;21.30;;;15.60;;
51718;SDS011;37795;53.236;5.704;2022-10-29T16:25:38;23.98;;;15.15;;
51718;SDS011;37795;53.236;5.704;2022-10-29T16:28:04;18.33;;;14.95;;
51718;SDS011;37795;53.236;5.704;2022-10-29T16:30:30;25.20;;;15.97;;
51718;SDS011;37795;53.236;5.704;2022-10-29T16:32:56;22.60;;;15.70;;
51718;SDS011;37795;53.236;5.704;2022-10-29T16:35:23;18.63;;;14.13;;
51718;SDS011;37795;53.236;5.704;2022-10-29T16:37:50;22.65;;;14.40;;
51718;SDS011;37795;53.236;5.704;2022-10-29T16:40:18;20.23;;;14.30;;
51718;SDS011;37795;53.236;5.704;2022-10-29T16:42:44;19.05;;;14.20;;
51718;SDS011;37795;53.236;5.704;2022-10-29T16:45:14;25.77;;;15.90;;
51718;SDS011;37795;53.236;5.704;2022-10-29T16:47:42;31.05;;;16.20;;
51718;SDS011;37795;53.236;5.704;2022-10-29T16:50:12;28.63;;;16.90;;
51718;SDS011;37795;53.236;5.704;2022-10-29T16:52:43;20.80;;;15.27;;
51718;SDS011;37795;53.236;5.704;2022-10-29T16:55:09;19.10;;;14.32;;
51718;SDS011;37795;53.236;5.704;2022-10-29T16:57:35;22.08;;;14.70;;
51718;SDS011;37795;53.236;5.704;2022-10-29T17:00:02;25.83;;;14.98;;
51718;SDS011;37795;53.236;5.704;2022-10-29T17:02:29;18.23;;;15.30;;
51718;SDS011;37795;53.236;5.704;2022-10-29T17:04:54;23.88;;;15.95;;
51718;SDS011;37795;53.236;5.704;2022-10-29T17:07:20;23.73;;;16.52;;
51718;SDS011;37795;53.236;5.704;2022-10-29T17:09:46;19.80;;;15.67;;
51718;SDS011;37795;53.236;5.704;2022-10-29T17:12:12;21.67;;;15.97;;
51718;SDS011;37795;53.236;5.704;2022-10-29T17:14:37;21.85;;;16.92;;
51718;SDS011;37795;53.236;5.704;2022-10-29T17:17:03;24.50;;;17.00;;
51718;SDS011;37795;53.236;5.704;2022-10-29T17:19:29;23.13;;;16.77;;
51718;SDS011;37795;53.236;5.704;2022-10-29T17:21:54;20.65;;;15.40;;
51718;SDS011;37795;53.236;5.704;2022-10-29T17:24:23;22.90;;;16.98;;
51718;SDS011;37795;53.236;5.704;2022-10-29T17:26:50;21.63;;;16.63;;
51718;SDS011;37795;53.236;5.704;2022-10-29T17:29:16;23.95;;;15.77;;
51718;SDS011;37795;53.236;5.704;2022-10-29T17:31:42;22.30;;;16.47;;
51718;SDS011;37795;53.236;5.704;2022-10-29T17:34:08;20.53;;;15.93;;
51718;SDS011;37795;53.236;5.704;2022-10-29T17:36:33;24.53;;;15.97;;
51718;SDS011;37795;53.236;5.704;2022-10-29T17:39:01;28.38;;;16.38;;
51718;SDS011;37795;53.236;5.704;2022-10-29T17:41:27;22.80;;;15.38;;
51718;SDS011;37795;53.236;5.704;2022-10-29T17:43:52;23.30;;;17.47;;
51718;SDS011;37795;53.236;5.704;2022-10-29T17:46:18;26.93;;;17.40;;
51718;SDS011;37795;53.236;5.704;2022-10-29T17:48:44;28.17;;;16.40;;
51718;SDS011;37795;53.236;5.704;2022-10-29T17:51:09;25.03;;;15.97;;
51718;SDS011;37795;53.236;5.704;2022-10-29T17:53:35;18.38;;;15.25;;